sensor_id;sensor_type;location;lat;lon;timestamp;temperature;humidity
25112;DHT22;13092;51.996;4.458;2022-08-21T00:01:46;19.20;99.90
25112;DHT22;13092;51.996;4.458;2022-08-21T00:04:14;19.20;99.90
25112;DHT22;13092;51.996;4.458;2022-08-21T00:06:48;19.30;99.90
25112;DHT22;13092;51.996;4.458;2022-08-21T00:09:17;19.10;99.90
25112;DHT22;13092;51.996;4.458;2022-08-21T00:11:46;19.20;99.90
25112;DHT22;13092;51.996;4.458;2022-08-21T00:14:15;19.20;99.90
25112;DHT22;13092;51.996;4.458;2022-08-21T00:16:44;19.10;99.90
25112;DHT22;13092;51.996;4.458;2022-08-21T00:19:13;19.10;99.90
25112;DHT22;13092;51.996;4.458;2022-08-21T00:21:41;19.10;99.90
25112;DHT22;13092;51.996;4.458;2022-08-21T00:24:10;19.10;99.90
25112;DHT22;13092;51.996;4.458;2022-08-21T00:26:40;19.10;99.90
25112;DHT22;13092;51.996;4.458;2022-08-21T00:29:11;19.20;99.90
25112;DHT22;13092;51.996;4.458;2022-08-21T00:31:39;19.00;99.90
25112;DHT22;13092;51.996;4.458;2022-08-21T00:34:10;19.00;99.90
25112;DHT22;13092;51.996;4.458;2022-08-21T00:36:40;19.00;99.90
25112;DHT22;13092;51.996;4.458;2022-08-21T00:39:09;19.00;99.90
25112;DHT22;13092;51.996;4.458;2022-08-21T00:41:38;19.00;99.90
25112;DHT22;13092;51.996;4.458;2022-08-21T00:44:08;19.00;99.90
25112;DHT22;13092;51.996;4.458;2022-08-21T00:46:37;19.00;99.90
25112;DHT22;13092;51.996;4.458;2022-08-21T00:49:06;18.90;99.90
25112;DHT22;13092;51.996;4.458;2022-08-21T00:51:39;18.90;99.90
25112;DHT22;13092;51.996;4.458;2022-08-21T00:54:08;18.90;99.90
25112;DHT22;13092;51.996;4.458;2022-08-21T00:56:46;18.90;99.90
25112;DHT22;13092;51.996;4.458;2022-08-21T00:59:22;18.90;99.90
25112;DHT22;13092;51.996;4.458;2022-08-21T01:01:51;18.80;99.90
25112;DHT22;13092;51.996;4.458;2022-08-21T01:04:19;18.70;99.90
25112;DHT22;13092;51.996;4.458;2022-08-21T01:06:49;18.80;99.90
25112;DHT22;13092;51.996;4.458;2022-08-21T01:09:18;18.80;99.90
25112;DHT22;13092;51.996;4.458;2022-08-21T01:11:47;18.80;99.90
25112;DHT22;13092;51.996;4.458;2022-08-21T01:14:15;18.80;99.90
25112;DHT22;13092;51.996;4.458;2022-08-21T01:16:50;18.70;99.90
25112;DHT22;13092;51.996;4.458;2022-08-21T01:19:21;18.90;99.90
25112;DHT22;13092;51.996;4.458;2022-08-21T01:21:51;18.70;99.90
25112;DHT22;13092;51.996;4.458;2022-08-21T01:24:20;18.70;99.90
25112;DHT22;13092;51.996;4.458;2022-08-21T01:26:49;18.70;99.90
25112;DHT22;13092;51.996;4.458;2022-08-21T01:29:26;18.70;99.90
25112;DHT22;13092;51.996;4.458;2022-08-21T01:31:56;18.70;99.90
25112;DHT22;13092;51.996;4.458;2022-08-21T01:34:25;18.70;99.90
25112;DHT22;13092;51.996;4.458;2022-08-21T01:36:54;18.70;99.90
25112;DHT22;13092;51.996;4.458;2022-08-21T01:39:22;18.80;99.90
25112;DHT22;13092;51.996;4.458;2022-08-21T01:41:51;18.70;99.90
25112;DHT22;13092;51.996;4.458;2022-08-21T01:44:20;18.70;99.90
25112;DHT22;13092;51.996;4.458;2022-08-21T01:46:50;18.60;99.90
25112;DHT22;13092;51.996;4.458;2022-08-21T01:49:18;18.60;99.90
25112;DHT22;13092;51.996;4.458;2022-08-21T01:51:47;18.60;99.90
25112;DHT22;13092;51.996;4.458;2022-08-21T01:54:16;18.80;99.90
25112;DHT22;13092;51.996;4.458;2022-08-21T01:56:46;18.60;99.90
25112;DHT22;13092;51.996;4.458;2022-08-21T01:59:15;18.60;99.90
25112;DHT22;13092;51.996;4.458;2022-08-21T02:01:43;18.60;99.90
25112;DHT22;13092;51.996;4.458;2022-08-21T02:04:11;18.70;99.90
25112;DHT22;13092;51.996;4.458;2022-08-21T02:06:39;18.70;99.90
25112;DHT22;13092;51.996;4.458;2022-08-21T02:09:08;18.70;99.90
25112;DHT22;13092;51.996;4.458;2022-08-21T02:11:39;18.70;99.90
25112;DHT22;13092;51.996;4.458;2022-08-21T02:14:08;18.70;99.90
25112;DHT22;13092;51.996;4.458;2022-08-21T02:16:38;18.70;99.90
25112;DHT22;13092;51.996;4.458;2022-08-21T02:19:06;18.70;99.90
25112;DHT22;13092;51.996;4.458;2022-08-21T02:21:37;18.50;99.90
25112;DHT22;13092;51.996;4.458;2022-08-21T02:24:05;18.60;99.90
25112;DHT22;13092;51.996;4.458;2022-08-21T02:26:34;18.60;99.90
25112;DHT22;13092;51.996;4.458;2022-08-21T02:29:05;18.70;99.90
25112;DHT22;13092;51.996;4.458;2022-08-21T02:31:34;18.50;99.90
25112;DHT22;13092;51.996;4.458;2022-08-21T02:34:02;18.50;99.90
25112;DHT22;13092;51.996;4.458;2022-08-21T02:36:30;18.50;99.90
25112;DHT22;13092;51.996;4.458;2022-08-21T02:38:58;18.50;99.90
25112;DHT22;13092;51.996;4.458;2022-08-21T02:41:27;18.40;99.90
25112;DHT22;13092;51.996;4.458;2022-08-21T02:43:55;18.40;99.90
25112;DHT22;13092;51.996;4.458;2022-08-21T02:46:25;18.30;99.90
25112;DHT22;13092;51.996;4.458;2022-08-21T02:48:53;18.30;99.90
25112;DHT22;13092;51.996;4.458;2022-08-21T02:51:21;18.30;99.90
25112;DHT22;13092;51.996;4.458;2022-08-21T02:53:50;18.30;99.90
25112;DHT22;13092;51.996;4.458;2022-08-21T02:56:21;18.20;99.90
25112;DHT22;13092;51.996;4.458;2022-08-21T02:58:57;18.30;99.90
25112;DHT22;13092;51.996;4.458;2022-08-21T03:01:28;18.30;99.90
25112;DHT22;13092;51.996;4.458;2022-08-21T03:03:56;18.20;99.90
25112;DHT22;13092;51.996;4.458;2022-08-21T03:06:26;18.30;99.90
25112;DHT22;13092;51.996;4.458;2022-08-21T03:08:55;18.30;99.90
25112;DHT22;13092;51.996;4.458;2022-08-21T03:11:24;18.20;99.90
25112;DHT22;13092;51.996;4.458;2022-08-21T03:13:56;18.20;99.90
25112;DHT22;13092;51.996;4.458;2022-08-21T03:16:25;18.20;99.90
25112;DHT22;13092;51.996;4.458;2022-08-21T03:18:59;18.30;99.90
25112;DHT22;13092;51.996;4.458;2022-08-21T03:21:29;18.10;99.90
25112;DHT22;13092;51.996;4.458;2022-08-21T03:23:57;18.20;99.90
25112;DHT22;13092;51.996;4.458;2022-08-21T03:26:29;18.10;99.90
25112;DHT22;13092;51.996;4.458;2022-08-21T03:29:06;18.10;99.90
25112;DHT22;13092;51.996;4.458;2022-08-21T03:31:35;18.30;99.90
25112;DHT22;13092;51.996;4.458;2022-08-21T03:34:03;18.10;99.90
25112;DHT22;13092;51.996;4.458;2022-08-21T03:36:31;18.10;99.90
25112;DHT22;13092;51.996;4.458;2022-08-21T03:38:59;18.10;99.90
25112;DHT22;13092;51.996;4.458;2022-08-21T03:41:27;18.00;99.90
25112;DHT22;13092;51.996;4.458;2022-08-21T03:43:56;18.00;99.90
25112;DHT22;13092;51.996;4.458;2022-08-21T03:46:24;17.90;99.90
25112;DHT22;13092;51.996;4.458;2022-08-21T03:48:53;18.00;99.90
25112;DHT22;13092;51.996;4.458;2022-08-21T03:51:22;18.00;99.90
25112;DHT22;13092;51.996;4.458;2022-08-21T03:53:50;17.90;99.90
25112;DHT22;13092;51.996;4.458;2022-08-21T03:56:20;18.00;99.90
25112;DHT22;13092;51.996;4.458;2022-08-21T03:58:48;18.00;99.90
25112;DHT22;13092;51.996;4.458;2022-08-21T04:01:17;17.90;99.90
25112;DHT22;13092;51.996;4.458;2022-08-21T04:03:45;17.90;99.90
25112;DHT22;13092;51.996;4.458;2022-08-21T04:06:16;17.90;99.90
25112;DHT22;13092;51.996;4.458;2022-08-21T04:08:44;17.90;99.90
25112;DHT22;13092;51.996;4.458;2022-08-21T04:11:12;17.90;99.90
25112;DHT22;13092;51.996;4.458;2022-08-21T04:13:41;17.90;99.90
25112;DHT22;13092;51.996;4.458;2022-08-21T04:16:10;17.90;99.90
25112;DHT22;13092;51.996;4.458;2022-08-21T04:18:38;17.90;99.90
25112;DHT22;13092;51.996;4.458;2022-08-21T04:21:07;17.90;99.90
25112;DHT22;13092;51.996;4.458;2022-08-21T04:23:40;17.90;99.90
25112;DHT22;13092;51.996;4.458;2022-08-21T04:26:08;17.80;99.90
25112;DHT22;13092;51.996;4.458;2022-08-21T04:28:37;17.90;99.90
25112;DHT22;13092;51.996;4.458;2022-08-21T04:31:05;17.90;99.90
25112;DHT22;13092;51.996;4.458;2022-08-21T04:33:36;17.90;99.90
25112;DHT22;13092;51.996;4.458;2022-08-21T04:36:05;17.90;99.90
25112;DHT22;13092;51.996;4.458;2022-08-21T04:38:34;17.80;99.90
25112;DHT22;13092;51.996;4.458;2022-08-21T04:41:05;17.70;99.90
25112;DHT22;13092;51.996;4.458;2022-08-21T04:43:33;17.80;99.90
25112;DHT22;13092;51.996;4.458;2022-08-21T04:46:01;17.80;99.90
25112;DHT22;13092;51.996;4.458;2022-08-21T04:48:32;17.70;99.90
25112;DHT22;13092;51.996;4.458;2022-08-21T04:51:02;17.70;99.90
25112;DHT22;13092;51.996;4.458;2022-08-21T04:53:38;17.70;99.90
25112;DHT22;13092;51.996;4.458;2022-08-21T04:56:13;17.80;99.90
25112;DHT22;13092;51.996;4.458;2022-08-21T04:58:44;17.70;99.90
25112;DHT22;13092;51.996;4.458;2022-08-21T05:01:15;17.70;99.90
25112;DHT22;13092;51.996;4.458;2022-08-21T05:03:44;17.70;99.90
25112;DHT22;13092;51.996;4.458;2022-08-21T05:06:13;17.80;99.90
25112;DHT22;13092;51.996;4.458;2022-08-21T05:08:45;17.70;99.90
25112;DHT22;13092;51.996;4.458;2022-08-21T05:11:15;17.90;99.90
25112;DHT22;13092;51.996;4.458;2022-08-21T05:13:43;17.70;99.90
25112;DHT22;13092;51.996;4.458;2022-08-21T05:16:12;17.80;99.90
25112;DHT22;13092;51.996;4.458;2022-08-21T05:19:00;17.80;99.90
25112;DHT22;13092;51.996;4.458;2022-08-21T05:21:31;17.80;99.90
25112;DHT22;13092;51.996;4.458;2022-08-21T05:24:02;17.80;99.90
25112;DHT22;13092;51.996;4.458;2022-08-21T05:26:33;17.80;99.90
25112;DHT22;13092;51.996;4.458;2022-08-21T05:29:12;17.70;99.90
25112;DHT22;13092;51.996;4.458;2022-08-21T05:31:42;18.00;99.90
25112;DHT22;13092;51.996;4.458;2022-08-21T05:34:11;17.90;99.90
25112;DHT22;13092;51.996;4.458;2022-08-21T05:36:42;18.00;99.90
25112;DHT22;13092;51.996;4.458;2022-08-21T05:39:10;18.00;99.90
25112;DHT22;13092;51.996;4.458;2022-08-21T05:41:40;18.00;99.90
25112;DHT22;13092;51.996;4.458;2022-08-21T05:44:08;18.10;99.90
25112;DHT22;13092;51.996;4.458;2022-08-21T05:46:37;18.10;99.90
25112;DHT22;13092;51.996;4.458;2022-08-21T05:49:05;18.10;99.90
25112;DHT22;13092;51.996;4.458;2022-08-21T05:51:36;18.20;99.90
25112;DHT22;13092;51.996;4.458;2022-08-21T05:54:04;18.10;99.90
25112;DHT22;13092;51.996;4.458;2022-08-21T05:56:32;18.30;99.90
25112;DHT22;13092;51.996;4.458;2022-08-21T05:59:02;18.20;99.90
25112;DHT22;13092;51.996;4.458;2022-08-21T06:01:34;18.40;99.90
25112;DHT22;13092;51.996;4.458;2022-08-21T06:04:03;18.50;99.90
25112;DHT22;13092;51.996;4.458;2022-08-21T06:06:33;18.60;99.90
25112;DHT22;13092;51.996;4.458;2022-08-21T06:09:02;18.60;99.90
25112;DHT22;13092;51.996;4.458;2022-08-21T06:11:31;18.60;99.90
25112;DHT22;13092;51.996;4.458;2022-08-21T06:14:05;18.60;99.90
25112;DHT22;13092;51.996;4.458;2022-08-21T06:16:34;18.60;99.90
25112;DHT22;13092;51.996;4.458;2022-08-21T06:19:02;18.70;99.90
25112;DHT22;13092;51.996;4.458;2022-08-21T06:21:30;18.70;99.90
25112;DHT22;13092;51.996;4.458;2022-08-21T06:24:00;18.70;99.90
25112;DHT22;13092;51.996;4.458;2022-08-21T06:26:28;18.90;99.90
25112;DHT22;13092;51.996;4.458;2022-08-21T06:28:59;18.80;99.90
25112;DHT22;13092;51.996;4.458;2022-08-21T06:31:31;18.90;99.90
25112;DHT22;13092;51.996;4.458;2022-08-21T06:34:01;18.90;99.90
25112;DHT22;13092;51.996;4.458;2022-08-21T06:36:29;19.00;99.90
25112;DHT22;13092;51.996;4.458;2022-08-21T06:39:00;19.20;99.90
25112;DHT22;13092;51.996;4.458;2022-08-21T06:41:42;19.10;99.90
25112;DHT22;13092;51.996;4.458;2022-08-21T06:44:11;19.00;99.90
25112;DHT22;13092;51.996;4.458;2022-08-21T06:46:42;19.10;99.90
25112;DHT22;13092;51.996;4.458;2022-08-21T06:49:13;19.10;99.90
25112;DHT22;13092;51.996;4.458;2022-08-21T06:51:47;19.20;99.90
25112;DHT22;13092;51.996;4.458;2022-08-21T06:54:15;19.20;99.90
25112;DHT22;13092;51.996;4.458;2022-08-21T06:56:46;19.30;99.90
25112;DHT22;13092;51.996;4.458;2022-08-21T06:59:14;19.40;99.90
25112;DHT22;13092;51.996;4.458;2022-08-21T07:01:43;19.50;99.90
25112;DHT22;13092;51.996;4.458;2022-08-21T07:04:13;19.50;99.90
25112;DHT22;13092;51.996;4.458;2022-08-21T07:06:41;19.50;99.90
25112;DHT22;13092;51.996;4.458;2022-08-21T07:09:09;19.50;99.90
25112;DHT22;13092;51.996;4.458;2022-08-21T07:11:42;19.50;99.90
25112;DHT22;13092;51.996;4.458;2022-08-21T07:14:13;19.60;99.90
25112;DHT22;13092;51.996;4.458;2022-08-21T07:16:48;19.60;99.90
25112;DHT22;13092;51.996;4.458;2022-08-21T07:19:17;19.60;99.90
25112;DHT22;13092;51.996;4.458;2022-08-21T07:21:47;19.70;99.90
25112;DHT22;13092;51.996;4.458;2022-08-21T07:24:15;19.70;99.90
25112;DHT22;13092;51.996;4.458;2022-08-21T07:26:46;19.80;99.90
25112;DHT22;13092;51.996;4.458;2022-08-21T07:29:17;19.80;99.90
25112;DHT22;13092;51.996;4.458;2022-08-21T07:31:47;19.80;99.90
25112;DHT22;13092;51.996;4.458;2022-08-21T07:34:17;20.10;99.90
25112;DHT22;13092;51.996;4.458;2022-08-21T07:36:46;19.90;99.90
25112;DHT22;13092;51.996;4.458;2022-08-21T07:39:17;19.90;99.90
25112;DHT22;13092;51.996;4.458;2022-08-21T07:41:55;20.00;99.90
25112;DHT22;13092;51.996;4.458;2022-08-21T07:44:23;20.10;99.90
25112;DHT22;13092;51.996;4.458;2022-08-21T07:46:53;20.20;99.90
25112;DHT22;13092;51.996;4.458;2022-08-21T07:49:23;20.30;99.90
25112;DHT22;13092;51.996;4.458;2022-08-21T07:51:51;20.40;99.90
25112;DHT22;13092;51.996;4.458;2022-08-21T07:54:21;20.50;99.90
25112;DHT22;13092;51.996;4.458;2022-08-21T07:56:59;20.70;99.90
25112;DHT22;13092;51.996;4.458;2022-08-21T07:59:47;20.80;99.90
25112;DHT22;13092;51.996;4.458;2022-08-21T08:02:23;21.10;99.90
25112;DHT22;13092;51.996;4.458;2022-08-21T08:04:52;21.20;99.90
25112;DHT22;13092;51.996;4.458;2022-08-21T08:07:20;21.30;99.90
25112;DHT22;13092;51.996;4.458;2022-08-21T08:09:54;21.30;99.90
25112;DHT22;13092;51.996;4.458;2022-08-21T08:12:22;21.50;99.90
25112;DHT22;13092;51.996;4.458;2022-08-21T08:14:56;21.40;99.90
25112;DHT22;13092;51.996;4.458;2022-08-21T08:17:31;21.30;99.90
25112;DHT22;13092;51.996;4.458;2022-08-21T08:20:00;21.60;99.90
25112;DHT22;13092;51.996;4.458;2022-08-21T08:22:33;21.50;99.90
25112;DHT22;13092;51.996;4.458;2022-08-21T08:25:05;21.70;99.90
25112;DHT22;13092;51.996;4.458;2022-08-21T08:27:36;21.60;99.90
25112;DHT22;13092;51.996;4.458;2022-08-21T08:30:07;21.60;99.90
25112;DHT22;13092;51.996;4.458;2022-08-21T08:32:37;21.60;99.90
25112;DHT22;13092;51.996;4.458;2022-08-21T08:35:07;21.50;99.90
25112;DHT22;13092;51.996;4.458;2022-08-21T08:37:36;21.60;99.90
25112;DHT22;13092;51.996;4.458;2022-08-21T08:40:11;21.70;99.90
25112;DHT22;13092;51.996;4.458;2022-08-21T08:42:40;21.90;99.90
25112;DHT22;13092;51.996;4.458;2022-08-21T08:45:12;22.00;99.90
25112;DHT22;13092;51.996;4.458;2022-08-21T08:47:44;22.00;99.90
25112;DHT22;13092;51.996;4.458;2022-08-21T08:50:24;22.20;99.90
25112;DHT22;13092;51.996;4.458;2022-08-21T08:52:59;22.30;99.90
25112;DHT22;13092;51.996;4.458;2022-08-21T08:55:36;22.30;99.90
25112;DHT22;13092;51.996;4.458;2022-08-21T08:58:08;22.30;99.90
25112;DHT22;13092;51.996;4.458;2022-08-21T09:00:39;22.40;99.90
25112;DHT22;13092;51.996;4.458;2022-08-21T09:03:10;22.30;99.90
25112;DHT22;13092;51.996;4.458;2022-08-21T09:05:43;22.30;99.90
25112;DHT22;13092;51.996;4.458;2022-08-21T09:08:36;22.40;99.90
25112;DHT22;13092;51.996;4.458;2022-08-21T09:11:12;22.40;99.90
25112;DHT22;13092;51.996;4.458;2022-08-21T09:13:55;22.60;99.90
25112;DHT22;13092;51.996;4.458;2022-08-21T09:16:33;22.90;99.90
25112;DHT22;13092;51.996;4.458;2022-08-21T09:19:27;23.00;99.90
25112;DHT22;13092;51.996;4.458;2022-08-21T09:22:06;23.00;99.90
25112;DHT22;13092;51.996;4.458;2022-08-21T09:24:43;23.20;99.90
25112;DHT22;13092;51.996;4.458;2022-08-21T09:27:19;23.10;99.90
25112;DHT22;13092;51.996;4.458;2022-08-21T09:29:53;23.00;99.90
25112;DHT22;13092;51.996;4.458;2022-08-21T09:32:30;22.90;99.90
25112;DHT22;13092;51.996;4.458;2022-08-21T09:35:08;22.70;99.90
25112;DHT22;13092;51.996;4.458;2022-08-21T09:37:50;22.80;99.90
25112;DHT22;13092;51.996;4.458;2022-08-21T09:40:35;22.80;99.90
25112;DHT22;13092;51.996;4.458;2022-08-21T09:43:16;22.70;99.90
25112;DHT22;13092;51.996;4.458;2022-08-21T09:45:49;22.60;99.90
25112;DHT22;13092;51.996;4.458;2022-08-21T09:48:49;22.50;99.90
25112;DHT22;13092;51.996;4.458;2022-08-21T09:51:20;22.30;99.90
25112;DHT22;13092;51.996;4.458;2022-08-21T09:53:56;22.10;99.90
25112;DHT22;13092;51.996;4.458;2022-08-21T09:56:35;22.10;99.90
25112;DHT22;13092;51.996;4.458;2022-08-21T09:59:26;22.10;99.90
25112;DHT22;13092;51.996;4.458;2022-08-21T10:02:23;22.20;99.90
25112;DHT22;13092;51.996;4.458;2022-08-21T10:04:57;22.50;99.90
25112;DHT22;13092;51.996;4.458;2022-08-21T10:07:30;22.60;99.90
25112;DHT22;13092;51.996;4.458;2022-08-21T10:10:03;22.70;99.90
25112;DHT22;13092;51.996;4.458;2022-08-21T10:12:42;22.60;99.90
25112;DHT22;13092;51.996;4.458;2022-08-21T10:15:20;22.60;99.90
25112;DHT22;13092;51.996;4.458;2022-08-21T10:18:06;22.60;99.90
25112;DHT22;13092;51.996;4.458;2022-08-21T10:20:41;22.50;99.90
25112;DHT22;13092;51.996;4.458;2022-08-21T10:23:28;22.60;99.90
25112;DHT22;13092;51.996;4.458;2022-08-21T10:26:05;22.80;99.90
25112;DHT22;13092;51.996;4.458;2022-08-21T10:28:44;22.90;99.90
25112;DHT22;13092;51.996;4.458;2022-08-21T10:31:24;23.00;99.90
25112;DHT22;13092;51.996;4.458;2022-08-21T10:34:09;23.20;99.90
25112;DHT22;13092;51.996;4.458;2022-08-21T10:36:44;23.50;99.90
25112;DHT22;13092;51.996;4.458;2022-08-21T10:39:23;23.80;99.90
25112;DHT22;13092;51.996;4.458;2022-08-21T10:42:30;23.90;99.90
25112;DHT22;13092;51.996;4.458;2022-08-21T10:45:10;24.00;99.90
25112;DHT22;13092;51.996;4.458;2022-08-21T10:47:47;24.00;99.90
25112;DHT22;13092;51.996;4.458;2022-08-21T10:50:30;24.20;99.90
25112;DHT22;13092;51.996;4.458;2022-08-21T10:53:15;24.60;99.90
25112;DHT22;13092;51.996;4.458;2022-08-21T10:55:51;24.50;99.90
25112;DHT22;13092;51.996;4.458;2022-08-21T10:58:27;24.80;99.90
25112;DHT22;13092;51.996;4.458;2022-08-21T11:01:00;24.90;99.90
25112;DHT22;13092;51.996;4.458;2022-08-21T11:03:36;24.90;99.90
25112;DHT22;13092;51.996;4.458;2022-08-21T11:06:13;24.70;99.90
25112;DHT22;13092;51.996;4.458;2022-08-21T11:08:45;24.70;99.90
25112;DHT22;13092;51.996;4.458;2022-08-21T11:11:19;24.60;99.90
25112;DHT22;13092;51.996;4.458;2022-08-21T11:14:02;24.50;99.90
25112;DHT22;13092;51.996;4.458;2022-08-21T11:16:41;24.50;99.90
25112;DHT22;13092;51.996;4.458;2022-08-21T11:19:15;24.60;99.90
25112;DHT22;13092;51.996;4.458;2022-08-21T11:21:48;24.70;99.90
25112;DHT22;13092;51.996;4.458;2022-08-21T11:24:29;24.60;99.90
25112;DHT22;13092;51.996;4.458;2022-08-21T11:27:05;24.50;99.90
25112;DHT22;13092;51.996;4.458;2022-08-21T11:29:49;24.50;99.90
25112;DHT22;13092;51.996;4.458;2022-08-21T11:32:48;24.50;99.90
25112;DHT22;13092;51.996;4.458;2022-08-21T11:35:32;24.50;99.90
25112;DHT22;13092;51.996;4.458;2022-08-21T11:38:22;24.70;99.90
25112;DHT22;13092;51.996;4.458;2022-08-21T11:41:23;24.70;99.90
25112;DHT22;13092;51.996;4.458;2022-08-21T11:44:02;24.80;99.90
25112;DHT22;13092;51.996;4.458;2022-08-21T11:46:42;24.80;99.90
25112;DHT22;13092;51.996;4.458;2022-08-21T11:49:33;24.90;99.90
25112;DHT22;13092;51.996;4.458;2022-08-21T11:52:13;24.90;99.90
25112;DHT22;13092;51.996;4.458;2022-08-21T11:55:06;24.90;99.90
25112;DHT22;13092;51.996;4.458;2022-08-21T11:57:46;25.00;99.90
25112;DHT22;13092;51.996;4.458;2022-08-21T12:00:21;25.10;99.90
25112;DHT22;13092;51.996;4.458;2022-08-21T12:02:55;24.90;99.90
25112;DHT22;13092;51.996;4.458;2022-08-21T12:05:53;24.70;99.90
25112;DHT22;13092;51.996;4.458;2022-08-21T12:08:39;24.80;99.90
25112;DHT22;13092;51.996;4.458;2022-08-21T12:11:20;24.90;99.90
25112;DHT22;13092;51.996;4.458;2022-08-21T12:14:13;24.90;99.90
25112;DHT22;13092;51.996;4.458;2022-08-21T12:16:49;24.70;99.90
25112;DHT22;13092;51.996;4.458;2022-08-21T12:19:30;24.60;99.90
25112;DHT22;13092;51.996;4.458;2022-08-21T12:22:13;24.40;99.90
25112;DHT22;13092;51.996;4.458;2022-08-21T12:25:17;24.30;99.90
25112;DHT22;13092;51.996;4.458;2022-08-21T12:28:25;24.40;99.90
25112;DHT22;13092;51.996;4.458;2022-08-21T12:31:00;24.60;99.90
25112;DHT22;13092;51.996;4.458;2022-08-21T12:33:35;24.80;99.90
25112;DHT22;13092;51.996;4.458;2022-08-21T12:36:12;24.90;99.90
25112;DHT22;13092;51.996;4.458;2022-08-21T12:38:56;25.10;99.90
25112;DHT22;13092;51.996;4.458;2022-08-21T12:41:43;24.90;99.90
25112;DHT22;13092;51.996;4.458;2022-08-21T12:44:36;24.80;99.90
25112;DHT22;13092;51.996;4.458;2022-08-21T12:47:12;25.00;99.90
25112;DHT22;13092;51.996;4.458;2022-08-21T12:49:53;25.00;99.90
25112;DHT22;13092;51.996;4.458;2022-08-21T12:53:05;24.80;99.90
25112;DHT22;13092;51.996;4.458;2022-08-21T12:58:49;24.90;99.90
25112;DHT22;13092;51.996;4.458;2022-08-21T13:01:46;25.10;99.90
25112;DHT22;13092;51.996;4.458;2022-08-21T13:07:38;24.90;99.90
25112;DHT22;13092;51.996;4.458;2022-08-21T13:10:27;25.00;99.90
25112;DHT22;13092;51.996;4.458;2022-08-21T13:13:20;25.00;99.90
25112;DHT22;13092;51.996;4.458;2022-08-21T13:15:58;24.90;99.90
25112;DHT22;13092;51.996;4.458;2022-08-21T13:18:35;24.80;99.90
25112;DHT22;13092;51.996;4.458;2022-08-21T13:21:14;24.70;99.90
25112;DHT22;13092;51.996;4.458;2022-08-21T13:23:50;24.80;99.90
25112;DHT22;13092;51.996;4.458;2022-08-21T13:26:22;24.90;99.90
25112;DHT22;13092;51.996;4.458;2022-08-21T13:29:07;24.90;99.90
25112;DHT22;13092;51.996;4.458;2022-08-21T13:31:41;24.60;99.90
25112;DHT22;13092;51.996;4.458;2022-08-21T13:34:30;24.60;99.90
25112;DHT22;13092;51.996;4.458;2022-08-21T13:37:05;24.80;99.90
25112;DHT22;13092;51.996;4.458;2022-08-21T13:40:25;24.90;99.90
25112;DHT22;13092;51.996;4.458;2022-08-21T13:43:12;25.20;99.90
25112;DHT22;13092;51.996;4.458;2022-08-21T13:46:14;25.40;99.90
25112;DHT22;13092;51.996;4.458;2022-08-21T13:49:54;25.50;99.90
25112;DHT22;13092;51.996;4.458;2022-08-21T13:51:51;25.70;99.90
25112;DHT22;13092;51.996;4.458;2022-08-21T13:54:55;25.50;99.90
25112;DHT22;13092;51.996;4.458;2022-08-21T13:57:37;25.20;99.90
25112;DHT22;13092;51.996;4.458;2022-08-21T14:00:15;25.30;99.90
25112;DHT22;13092;51.996;4.458;2022-08-21T14:03:00;25.30;99.90
25112;DHT22;13092;51.996;4.458;2022-08-21T14:05:50;25.20;99.90
25112;DHT22;13092;51.996;4.458;2022-08-21T14:08:46;24.90;99.90
25112;DHT22;13092;51.996;4.458;2022-08-21T14:11:27;24.90;99.90
25112;DHT22;13092;51.996;4.458;2022-08-21T14:14:15;24.60;99.90
25112;DHT22;13092;51.996;4.458;2022-08-21T14:17:13;24.60;99.90
25112;DHT22;13092;51.996;4.458;2022-08-21T14:20:03;24.50;99.90
25112;DHT22;13092;51.996;4.458;2022-08-21T14:22:47;24.50;99.90
25112;DHT22;13092;51.996;4.458;2022-08-21T14:25:31;24.40;99.90
25112;DHT22;13092;51.996;4.458;2022-08-21T14:28:18;24.10;99.90
25112;DHT22;13092;51.996;4.458;2022-08-21T14:31:27;24.00;99.90
25112;DHT22;13092;51.996;4.458;2022-08-21T14:34:00;23.90;99.90
25112;DHT22;13092;51.996;4.458;2022-08-21T14:37:05;23.70;99.90
25112;DHT22;13092;51.996;4.458;2022-08-21T14:39:46;23.50;99.90
25112;DHT22;13092;51.996;4.458;2022-08-21T14:42:25;23.30;99.90
25112;DHT22;13092;51.996;4.458;2022-08-21T14:44:55;23.20;99.90
25112;DHT22;13092;51.996;4.458;2022-08-21T14:47:40;23.10;99.90
25112;DHT22;13092;51.996;4.458;2022-08-21T14:50:23;23.00;99.90
25112;DHT22;13092;51.996;4.458;2022-08-21T14:53:30;22.90;99.90
25112;DHT22;13092;51.996;4.458;2022-08-21T14:56:00;22.90;99.90
25112;DHT22;13092;51.996;4.458;2022-08-21T14:58:49;22.80;99.90
25112;DHT22;13092;51.996;4.458;2022-08-21T15:01:42;22.90;99.90
25112;DHT22;13092;51.996;4.458;2022-08-21T15:04:16;23.00;99.90
25112;DHT22;13092;51.996;4.458;2022-08-21T15:06:57;23.10;99.90
25112;DHT22;13092;51.996;4.458;2022-08-21T15:09:47;23.10;99.90
25112;DHT22;13092;51.996;4.458;2022-08-21T15:12:26;23.10;99.90
25112;DHT22;13092;51.996;4.458;2022-08-21T15:15:11;23.10;99.90
25112;DHT22;13092;51.996;4.458;2022-08-21T15:17:53;23.30;99.90
25112;DHT22;13092;51.996;4.458;2022-08-21T15:20:42;23.50;99.90
25112;DHT22;13092;51.996;4.458;2022-08-21T15:23:13;23.60;99.90
25112;DHT22;13092;51.996;4.458;2022-08-21T15:25:48;23.70;99.90
25112;DHT22;13092;51.996;4.458;2022-08-21T15:28:30;23.80;99.90
25112;DHT22;13092;51.996;4.458;2022-08-21T15:31:05;23.50;99.90
25112;DHT22;13092;51.996;4.458;2022-08-21T15:33:33;23.50;99.90
25112;DHT22;13092;51.996;4.458;2022-08-21T15:36:05;23.50;99.90
25112;DHT22;13092;51.996;4.458;2022-08-21T15:38:33;23.80;99.90
25112;DHT22;13092;51.996;4.458;2022-08-21T15:41:05;23.90;99.90
25112;DHT22;13092;51.996;4.458;2022-08-21T15:43:39;24.10;99.90
25112;DHT22;13092;51.996;4.458;2022-08-21T15:46:11;24.10;99.90
25112;DHT22;13092;51.996;4.458;2022-08-21T15:48:41;24.00;99.90
25112;DHT22;13092;51.996;4.458;2022-08-21T15:51:16;24.00;99.90
25112;DHT22;13092;51.996;4.458;2022-08-21T15:54:00;24.10;99.90
25112;DHT22;13092;51.996;4.458;2022-08-21T15:56:36;24.10;99.90
25112;DHT22;13092;51.996;4.458;2022-08-21T15:59:08;24.00;99.90
25112;DHT22;13092;51.996;4.458;2022-08-21T16:01:36;24.00;99.90
25112;DHT22;13092;51.996;4.458;2022-08-21T16:04:13;24.20;99.90
25112;DHT22;13092;51.996;4.458;2022-08-21T16:06:59;24.30;99.90
25112;DHT22;13092;51.996;4.458;2022-08-21T16:09:35;24.20;99.90
25112;DHT22;13092;51.996;4.458;2022-08-21T16:12:09;24.10;99.90
25112;DHT22;13092;51.996;4.458;2022-08-21T16:14:41;23.90;99.90
25112;DHT22;13092;51.996;4.458;2022-08-21T16:17:15;24.00;99.90
25112;DHT22;13092;51.996;4.458;2022-08-21T16:19:44;24.00;99.90
25112;DHT22;13092;51.996;4.458;2022-08-21T16:22:14;24.10;99.90
25112;DHT22;13092;51.996;4.458;2022-08-21T16:24:44;24.10;99.90
25112;DHT22;13092;51.996;4.458;2022-08-21T16:27:15;24.10;99.90